Time;durP1;ratioP1;P1;durP2;ratioP2;P2;SDS_P1;SDS_P2;PMS_P1;PMS_P2;Temp;Humidity;BMP_temperature;BMP_pressure;BME280_temperature;BME280_humidity;BME280_pressure;Samples;Min_cycle;Max_cycle;Signal;HPM_P1;HPM_P2
2023/12/17 00:02:18;;;;;;;10.77;4.03;;;11.30;99.90;;;;;;5071500;28;20184;-74
2023/12/17 00:04:43;;;;;;;7.10;4.97;;;11.30;99.90;;;;;;5052883;28;20200;-74
2023/12/17 00:07:09;;;;;;;6.43;3.20;;;11.30;99.90;;;;;;5053163;28;20318;-74
2023/12/17 00:09:35;;;;;;;8.07;3.93;;;11.30;99.90;;;;;;5052183;28;20172;-74
2023/12/17 00:12:00;;;;;;;7.50;3.50;;;11.30;99.90;;;;;;5052987;28;20547;-74
2023/12/17 00:14:26;;;;;;;7.63;4.23;;;11.30;99.90;;;;;;5045273;28;20279;-75
2023/12/17 00:16:52;;;;;;;12.13;3.47;;;11.30;99.90;;;;;;5063744;28;20184;-73
2023/12/17 00:19:17;;;;;;;5.60;3.77;;;11.30;99.90;;;;;;5061896;28;20172;-73
2023/12/17 00:21:43;;;;;;;7.33;3.10;;;11.30;99.90;;;;;;5051751;28;20176;-73
2023/12/17 00:24:09;;;;;;;6.20;3.20;;;11.30;99.90;;;;;;5035504;28;20200;-75
2023/12/17 00:26:34;;;;;;;5.43;3.73;;;11.30;99.90;;;;;;5052195;28;20183;-74
2023/12/17 00:29:00;;;;;;;6.87;3.70;;;11.30;99.90;;;;;;5043957;28;20180;-74
2023/12/17 00:31:26;;;;;;;7.75;4.07;;;11.30;99.90;;;;;;5051659;28;20179;-75
2023/12/17 00:33:52;;;;;;;10.60;3.90;;;11.30;99.90;;;;;;5052279;28;20196;-74
2023/12/17 00:36:17;;;;;;;13.03;4.63;;;11.30;99.90;;;;;;5070055;28;20168;-73
2023/12/17 00:38:43;;;;;;;5.17;3.93;;;11.30;99.90;;;;;;5069076;28;20188;-74
2023/12/17 00:41:09;;;;;;;6.13;3.70;;;11.30;99.90;;;;;;5051098;28;20202;-74
2023/12/17 00:43:36;;;;;;;5.57;2.97;;;11.30;99.90;;;;;;5055392;28;20228;-73
2023/12/17 00:46:01;;;;;;;8.07;4.70;;;11.30;99.90;;;;;;5084521;23;20221;-78
2023/12/17 00:48:27;;;;;;;4.67;3.03;;;11.30;99.90;;;;;;5084996;28;20168;-78
2023/12/17 00:50:53;;;;;;;7.53;4.23;;;11.30;99.90;;;;;;5102510;28;20580;-79
2023/12/17 00:53:18;;;;;;;5.27;2.80;;;11.30;99.90;;;;;;5119892;28;20166;-79
2023/12/17 00:55:44;;;;;;;5.47;3.40;;;11.30;99.90;;;;;;5070167;28;20214;-78
2023/12/17 00:58:10;;;;;;;5.33;4.10;;;11.30;99.90;;;;;;5105394;28;20213;-78
2023/12/17 01:00:36;;;;;;;5.30;3.40;;;11.30;99.90;;;;;;5105127;28;20205;-78
2023/12/17 01:03:01;;;;;;;4.93;2.80;;;11.30;99.90;;;;;;5033299;28;20190;-79
2023/12/17 01:05:33;;;;;;;7.38;2.90;;;11.30;99.90;;;;;;5104258;28;20198;-79
2023/12/17 01:07:59;;;;;;;5.00;3.15;;;11.30;99.90;;;;;;5104732;28;20178;-78
2023/12/17 01:10:25;;;;;;;6.68;3.15;;;11.30;99.90;;;;;;5099545;28;20177;-78
2023/12/17 01:12:50;;;;;;;9.33;3.60;;;11.40;99.90;;;;;;5120492;28;20242;-78
2023/12/17 01:15:16;;;;;;;6.83;3.40;;;11.30;99.90;;;;;;5100168;28;20198;-78
2023/12/17 01:17:42;;;;;;;4.43;2.53;;;11.30;99.90;;;;;;5034098;28;20684;-78
2023/12/17 01:20:08;;;;;;;6.33;2.90;;;11.30;99.90;;;;;;5102174;28;20204;-78
2023/12/17 01:22:34;;;;;;;4.00;2.10;;;11.30;99.90;;;;;;5033507;28;20182;-78
2023/12/17 01:24:59;;;;;;;3.40;2.53;;;11.20;99.90;;;;;;5101850;28;20217;-78
2023/12/17 01:27:25;;;;;;;6.07;2.80;;;11.20;99.90;;;;;;5084943;28;20204;-78
2023/12/17 01:29:53;;;;;;;4.57;2.25;;;11.20;99.90;;;;;;5033131;28;20167;-78
2023/12/17 01:32:19;;;;;;;3.63;1.60;;;11.20;99.90;;;;;;5091885;28;20209;-78
2023/12/17 01:34:45;;;;;;;2.50;1.80;;;11.20;99.90;;;;;;5075602;28;20187;-78
2023/12/17 01:37:10;;;;;;;5.23;2.23;;;11.20;99.90;;;;;;5087073;28;20186;-78
2023/12/17 01:39:36;;;;;;;4.40;1.87;;;11.20;99.90;;;;;;5003985;28;20186;-78
2023/12/17 01:42:02;;;;;;;4.70;1.90;;;11.20;99.90;;;;;;5030688;28;20254;-78
2023/12/17 01:44:27;;;;;;;3.10;2.17;;;11.10;99.90;;;;;;5101512;28;20257;-77
2023/12/17 01:46:53;;;;;;;3.80;1.80;;;11.10;99.90;;;;;;5102355;28;20167;-78
2023/12/17 01:49:19;;;;;;;2.43;1.83;;;11.10;99.90;;;;;;5085132;28;20159;-78
2023/12/17 01:51:45;;;;;;;4.40;1.80;;;11.10;99.90;;;;;;5033659;28;20650;-78
2023/12/17 01:54:11;;;;;;;3.97;1.80;;;11.10;99.90;;;;;;5102755;28;20175;-78
2023/12/17 01:56:36;;;;;;;3.47;1.80;;;11.10;99.90;;;;;;5034484;28;20613;-79
2023/12/17 01:59:03;;;;;;;3.63;1.83;;;11.10;99.90;;;;;;5035088;28;20577;-78
2023/12/17 02:01:29;;;;;;;6.05;1.88;;;11.10;99.90;;;;;;5103271;28;20202;-78
2023/12/17 02:03:55;;;;;;;4.50;2.47;;;11.10;99.90;;;;;;5103022;28;20186;-78
2023/12/17 02:06:21;;;;;;;4.05;2.70;;;11.10;99.90;;;;;;5116445;28;20661;-78
2023/12/17 02:08:47;;;;;;;5.03;3.00;;;11.10;99.90;;;;;;5097046;28;20167;-78
2023/12/17 02:11:31;;;;;;;4.45;2.08;;;11.10;99.90;;;;;;5034043;28;20231;-78
2023/12/17 02:13:57;;;;;;;3.33;1.60;;;11.10;99.90;;;;;;5103136;28;20628;-78
2023/12/17 02:16:23;;;;;;;2.10;1.80;;;11.10;99.90;;;;;;5091134;28;20671;-77
2023/12/17 02:18:48;;;;;;;2.80;1.97;;;11.00;99.90;;;;;;5096195;28;20158;-78
2023/12/17 02:21:14;;;;;;;2.67;2.10;;;11.10;99.90;;;;;;5100466;28;20201;-78
2023/12/17 02:23:40;;;;;;;3.50;1.57;;;11.00;99.90;;;;;;5069546;28;20189;-78
2023/12/17 02:26:06;;;;;;;2.90;1.67;;;11.10;99.90;;;;;;5086630;28;20231;-78
2023/12/17 02:28:31;;;;;;;2.60;1.80;;;11.10;99.90;;;;;;5099179;28;20189;-79
2023/12/17 02:30:57;;;;;;;3.33;1.87;;;11.00;99.90;;;;;;5029911;28;20223;-79
2023/12/17 02:33:23;;;;;;;2.40;1.87;;;11.00;99.90;;;;;;5099905;28;20231;-78
2023/12/17 02:35:48;;;;;;;3.03;1.57;;;11.00;99.90;;;;;;5033071;28;20206;-79
2023/12/17 02:38:14;;;;;;;2.63;1.63;;;11.10;99.90;;;;;;5100144;28;20161;-78
2023/12/17 02:40:41;;;;;;;3.83;1.80;;;11.00;99.90;;;;;;5089214;28;20187;-79
2023/12/17 02:43:08;;;;;;;4.55;1.75;;;11.10;99.90;;;;;;5099957;28;20201;-79
2023/12/17 02:45:33;;;;;;;3.30;1.47;;;11.10;99.90;;;;;;5031862;28;20210;-79
2023/12/17 02:47:59;;;;;;;4.90;2.27;;;11.10;99.90;;;;;;5097532;28;20183;-78
2023/12/17 02:50:25;;;;;;;5.57;1.70;;;11.10;99.90;;;;;;5077338;28;20178;-78
2023/12/17 02:52:53;;;;;;;3.95;1.40;;;11.10;99.90;;;;;;5074048;28;20190;-78
2023/12/17 02:55:22;;;;;;;2.60;2.00;;;11.10;99.90;;;;;;5005008;28;20202;-79
2023/12/17 02:57:47;;;;;;;3.75;1.92;;;11.20;99.90;;;;;;5028154;28;20585;-76
2023/12/17 03:00:14;;;;;;;4.90;2.40;;;11.20;99.90;;;;;;5061053;28;20171;-75
2023/12/17 03:02:40;;;;;;;4.78;1.60;;;11.20;99.90;;;;;;5073637;28;20179;-75
2023/12/17 03:05:06;;;;;;;5.50;2.63;;;11.20;99.90;;;;;;5076171;28;20213;-75
2023/12/17 03:07:32;;;;;;;3.88;2.30;;;11.20;99.90;;;;;;5042857;28;20178;-76
2023/12/17 03:09:58;;;;;;;3.10;1.87;;;11.20;99.90;;;;;;4957998;28;20174;-75
2023/12/17 03:12:24;;;;;;;7.07;2.23;;;11.20;99.90;;;;;;5008695;28;20174;-75
2023/12/17 03:14:49;;;;;;;3.17;2.67;;;11.20;99.90;;;;;;5008547;28;20281;-75
2023/12/17 03:17:15;;;;;;;2.53;1.67;;;11.20;99.90;;;;;;5076758;28;20186;-76
2023/12/17 03:19:41;;;;;;;2.90;2.43;;;11.20;99.90;;;;;;5075544;28;20190;-76
2023/12/17 03:22:06;;;;;;;3.13;1.97;;;11.20;99.90;;;;;;5059262;28;20207;-75
2023/12/17 03:24:32;;;;;;;3.27;2.40;;;11.20;99.90;;;;;;5059052;28;20233;-75
2023/12/17 03:26:58;;;;;;;5.13;2.30;;;11.30;99.90;;;;;;5008397;28;20224;-75
2023/12/17 03:29:24;;;;;;;4.93;2.60;;;11.30;99.90;;;;;;5008526;28;20170;-75
2023/12/17 03:31:49;;;;;;;4.43;2.57;;;11.30;99.90;;;;;;5077120;28;20614;-75
2023/12/17 03:34:18;;;;;;;3.10;2.43;;;11.30;99.90;;;;;;5009751;28;20167;-76
2023/12/17 03:36:44;;;;;;;2.95;2.55;;;11.30;99.90;;;;;;5076159;28;20182;-75
2023/12/17 03:39:09;;;;;;;3.30;2.03;;;11.30;99.90;;;;;;5059000;28;20355;-76
2023/12/17 03:41:35;;;;;;;4.63;2.17;;;11.30;99.90;;;;;;5058524;28;20195;-75
2023/12/17 03:44:01;;;;;;;4.30;2.50;;;11.30;99.90;;;;;;5075963;28;20205;-75
2023/12/17 03:46:26;;;;;;;5.50;3.00;;;11.20;99.90;;;;;;5075631;28;20270;-75
2023/12/17 03:48:52;;;;;;;5.33;2.43;;;11.20;99.90;;;;;;5008287;28;20213;-75
2023/12/17 03:51:18;;;;;;;5.50;2.50;;;11.30;99.90;;;;;;4990266;28;20617;-75
2023/12/17 03:53:44;;;;;;;5.10;2.70;;;11.20;99.90;;;;;;5076694;28;20623;-75
2023/12/17 03:56:11;;;;;;;3.23;1.97;;;11.20;99.90;;;;;;5059156;28;20711;-75
2023/12/17 03:58:38;;;;;;;6.97;2.75;;;11.30;99.90;;;;;;5008193;28;20178;-76
2023/12/17 04:01:04;;;;;;;4.00;2.15;;;11.30;99.90;;;;;;5075145;28;20208;-75
2023/12/17 04:03:30;;;;;;;5.28;2.47;;;11.20;99.90;;;;;;5075599;28;20170;-75
2023/12/17 04:05:58;;;;;;;4.43;3.20;;;11.20;99.90;;;;;;5007519;28;20571;-76
2023/12/17 04:08:24;;;;;;;3.47;2.47;;;11.20;99.90;;;;;;5075634;28;20575;-75
2023/12/17 04:10:49;;;;;;;3.67;1.60;;;11.20;99.90;;;;;;5078511;28;20213;-75
2023/12/17 04:13:15;;;;;;;3.60;1.80;;;11.20;99.90;;;;;;5079426;28;20205;-75
2023/12/17 04:15:41;;;;;;;3.97;2.13;;;11.20;99.90;;;;;;5082267;28;20198;-75
2023/12/17 04:18:06;;;;;;;3.27;1.97;;;11.20;99.90;;;;;;5065351;28;20546;-75
2023/12/17 04:20:32;;;;;;;2.77;2.03;;;11.20;99.90;;;;;;5081087;28;20177;-74
2023/12/17 04:22:58;;;;;;;7.33;1.70;;;11.20;99.90;;;;;;5014337;28;20658;-75
2023/12/17 04:25:25;;;;;;;3.37;1.50;;;11.20;99.90;;;;;;5081975;28;20210;-75
2023/12/17 04:27:51;;;;;;;3.83;2.53;;;11.20;99.90;;;;;;5081905;28;20186;-75
2023/12/17 04:30:17;;;;;;;3.73;2.40;;;11.20;99.90;;;;;;5081423;28;20232;-74
2023/12/17 04:32:42;;;;;;;6.00;3.17;;;11.20;99.90;;;;;;5014013;28;21137;-75
2023/12/17 04:35:09;;;;;;;3.53;3.00;;;11.20;99.90;;;;;;5013804;28;20621;-75
2023/12/17 04:37:34;;;;;;;4.88;3.17;;;11.20;99.90;;;;;;5079393;28;20187;-75
2023/12/17 04:40:00;;;;;;;4.00;2.80;;;11.20;99.90;;;;;;5013686;28;20239;-75
2023/12/17 04:42:26;;;;;;;3.90;3.10;;;11.20;99.90;;;;;;5078753;28;20814;-76
2023/12/17 04:44:52;;;;;;;4.57;3.60;;;11.20;99.90;;;;;;5097328;28;20298;-75
2023/12/17 04:47:18;;;;;;;5.10;3.33;;;11.20;99.90;;;;;;5082841;28;20170;-75
2023/12/17 04:49:43;;;;;;;3.20;2.57;;;11.20;99.90;;;;;;5064518;28;20182;-75
2023/12/17 04:52:09;;;;;;;5.30;2.97;;;11.20;99.90;;;;;;5082102;28;20569;-75
2023/12/17 04:54:34;;;;;;;3.47;2.90;;;11.20;99.90;;;;;;5013639;28;20552;-75
2023/12/17 04:57:00;;;;;;;4.13;2.23;;;11.20;99.90;;;;;;5082188;28;20183;-75
2023/12/17 04:59:26;;;;;;;3.97;2.33;;;11.20;99.90;;;;;;5014181;28;20243;-76
2023/12/17 05:01:52;;;;;;;3.00;1.80;;;11.20;99.90;;;;;;5081291;28;21483;-75
2023/12/17 05:04:17;;;;;;;3.37;2.27;;;11.20;99.90;;;;;;5081498;28;20206;-75
2023/12/17 05:06:43;;;;;;;2.60;1.60;;;11.20;99.90;;;;;;5013710;28;20198;-75
2023/12/17 05:09:10;;;;;;;5.00;1.80;;;11.20;99.90;;;;;;5013797;28;20171;-75
2023/12/17 05:11:35;;;;;;;3.90;2.63;;;11.30;99.90;;;;;;5064422;28;20216;-75
2023/12/17 05:14:01;;;;;;;4.87;2.30;;;11.20;99.90;;;;;;5014013;28;20171;-75
2023/12/17 05:16:27;;;;;;;3.37;2.20;;;11.20;99.90;;;;;;5081524;28;20791;-75
2023/12/17 05:18:53;;;;;;;2.73;2.03;;;11.20;99.90;;;;;;5080635;28;20632;-75
2023/12/17 05:21:18;;;;;;;2.77;1.83;;;11.20;99.90;;;;;;4979431;28;20585;-75
2023/12/17 05:23:44;;;;;;;3.63;2.20;;;11.20;99.90;;;;;;5016715;28;20201;-75
2023/12/17 05:26:10;;;;;;;4.77;2.57;;;11.20;99.90;;;;;;5078362;28;20187;-75
2023/12/17 05:28:37;;;;;;;5.67;2.53;;;11.20;99.90;;;;;;4992849;28;20274;-75
2023/12/17 05:31:04;;;;;;;5.38;2.20;;;11.20;99.90;;;;;;5065700;28;20670;-75
2023/12/17 05:33:30;;;;;;;3.05;1.95;;;11.20;99.90;;;;;;4988551;28;20517;-75
2023/12/17 05:35:55;;;;;;;4.20;2.50;;;11.20;99.90;;;;;;5010262;28;20208;-75
2023/12/17 05:38:21;;;;;;;3.27;1.70;;;11.20;99.90;;;;;;5010510;28;20178;-75
2023/12/17 05:40:47;;;;;;;3.90;1.67;;;11.20;99.90;;;;;;5077446;28;20190;-76
2023/12/17 05:43:13;;;;;;;2.25;1.50;;;11.20;99.90;;;;;;5078032;28;20555;-75
2023/12/17 05:45:39;;;;;;;2.95;1.65;;;11.20;99.90;;;;;;5060915;28;20237;-75
2023/12/17 05:48:07;;;;;;;3.40;1.93;;;11.20;99.90;;;;;;5009799;28;20218;-75
2023/12/17 05:50:33;;;;;;;2.00;1.40;;;11.20;99.90;;;;;;5077420;28;20236;-75
2023/12/17 05:52:58;;;;;;;3.57;1.70;;;11.20;99.90;;;;;;5077829;28;20174;-76
2023/12/17 05:55:24;;;;;;;2.60;1.57;;;11.20;99.90;;;;;;5077550;28;20205;-75
2023/12/17 05:57:51;;;;;;;3.07;2.20;;;11.20;99.90;;;;;;5009881;28;20193;-76
2023/12/17 06:00:17;;;;;;;1.98;1.35;;;11.20;99.90;;;;;;5014983;28;20171;-75
2023/12/17 06:02:42;;;;;;;2.47;1.67;;;11.20;99.90;;;;;;5079709;28;20192;-75
2023/12/17 06:05:08;;;;;;;2.90;1.20;;;11.20;99.90;;;;;;5077266;28;20695;-76
2023/12/17 06:07:34;;;;;;;3.00;1.50;;;11.20;99.90;;;;;;4992191;28;20183;-76
2023/12/17 06:10:00;;;;;;;2.17;1.97;;;11.20;99.90;;;;;;4991888;28;20594;-76
2023/12/17 06:12:25;;;;;;;1.80;1.10;;;11.20;99.90;;;;;;5009687;28;20178;-76
2023/12/17 06:14:51;;;;;;;2.37;1.60;;;11.20;99.90;;;;;;5077372;28;20206;-76
2023/12/17 06:17:17;;;;;;;2.70;1.60;;;11.20;99.90;;;;;;5009623;28;20210;-76
2023/12/17 06:19:44;;;;;;;3.17;1.60;;;11.20;99.90;;;;;;5040521;28;20519;-75
2023/12/17 06:22:11;;;;;;;1.80;1.30;;;11.20;99.90;;;;;;5009700;28;20211;-75
2023/12/17 06:24:37;;;;;;;2.10;1.00;;;11.20;99.90;;;;;;5009287;28;20206;-75
2023/12/17 06:27:03;;;;;;;2.88;1.35;;;11.20;99.90;;;;;;5077524;28;20703;-75
2023/12/17 06:29:29;;;;;;;2.58;1.40;;;11.20;99.90;;;;;;5077140;28;20179;-75
2023/12/17 06:31:55;;;;;;;2.33;1.60;;;11.20;99.90;;;;;;5075335;28;20187;-75
2023/12/17 06:34:21;;;;;;;1.80;1.00;;;11.20;99.90;;;;;;5073810;28;20167;-75
2023/12/17 06:36:47;;;;;;;2.45;1.10;;;11.20;99.90;;;;;;5055317;28;20209;-76
2023/12/17 06:39:12;;;;;;;2.43;1.77;;;11.20;99.90;;;;;;5012885;28;20174;-75
2023/12/17 06:41:44;;;;;;;2.20;1.33;;;11.20;99.90;;;;;;5076405;28;20232;-74
2023/12/17 06:44:10;;;;;;;1.98;1.20;;;11.20;99.90;;;;;;5076878;28;20568;-74
2023/12/17 06:46:36;;;;;;;3.07;1.60;;;11.20;99.90;;;;;;5082014;28;20206;-78
2023/12/17 06:49:02;;;;;;;2.97;1.60;;;11.20;99.90;;;;;;5090105;28;20569;-79
2023/12/17 06:51:27;;;;;;;2.47;1.40;;;11.20;99.90;;;;;;5074365;28;20174;-78
2023/12/17 06:53:53;;;;;;;2.40;1.20;;;11.20;99.90;;;;;;5088422;28;20208;-78
2023/12/17 06:56:19;;;;;;;2.30;1.37;;;11.20;99.90;;;;;;5072308;28;20677;-79
2023/12/17 06:58:45;;;;;;;2.00;1.40;;;11.20;99.90;;;;;;5080455;28;20186;-78
2023/12/17 07:01:11;;;;;;;2.37;1.33;;;11.20;99.90;;;;;;5086824;28;20585;-77
2023/12/17 07:03:37;;;;;;;2.70;2.00;;;11.20;99.90;;;;;;4999246;28;20182;-77
2023/12/17 07:06:03;;;;;;;2.90;1.20;;;11.20;99.90;;;;;;5011368;28;20559;-77
2023/12/17 07:08:29;;;;;;;2.70;1.60;;;11.20;99.90;;;;;;5081852;28;20216;-78
2023/12/17 07:10:54;;;;;;;2.30;1.60;;;11.20;99.90;;;;;;5082090;28;20589;-78
2023/12/17 07:13:20;;;;;;;2.43;1.80;;;11.20;99.90;;;;;;5066946;28;20174;-77
2023/12/17 07:15:46;;;;;;;2.77;1.60;;;11.20;99.90;;;;;;5065738;28;20236;-77
2023/12/17 07:18:11;;;;;;;3.03;2.10;;;11.20;99.90;;;;;;5077835;28;20178;-77
2023/12/17 07:20:37;;;;;;;2.50;1.90;;;11.10;99.90;;;;;;5071919;28;20179;-77
2023/12/17 07:23:03;;;;;;;2.33;1.60;;;11.20;99.90;;;;;;5010841;28;20185;-78
2023/12/17 07:25:29;;;;;;;3.07;1.73;;;11.10;99.90;;;;;;5076649;28;20210;-78
2023/12/17 07:27:54;;;;;;;2.50;1.80;;;11.20;99.90;;;;;;5078086;28;20186;-78
2023/12/17 07:30:20;;;;;;;3.13;1.87;;;11.20;99.90;;;;;;5009025;28;20590;-77
2023/12/17 07:32:47;;;;;;;2.70;1.73;;;11.20;99.90;;;;;;4991879;28;20174;-77
2023/12/17 07:35:14;;;;;;;3.15;1.90;;;11.20;99.90;;;;;;5074144;28;20626;-77
2023/12/17 07:37:40;;;;;;;3.97;2.08;;;11.20;99.90;;;;;;5008486;28;20552;-77
2023/12/17 07:40:06;;;;;;;4.22;2.00;;;11.20;99.90;;;;;;5071990;28;20229;-77
2023/12/17 07:42:32;;;;;;;2.60;1.88;;;11.20;99.90;;;;;;5015345;28;20178;-78
2023/12/17 07:44:58;;;;;;;3.47;1.97;;;11.20;99.90;;;;;;5088572;28;20210;-78
2023/12/17 07:47:23;;;;;;;3.60;2.60;;;11.20;99.90;;;;;;5005938;28;20589;-75
2023/12/17 07:49:49;;;;;;;3.50;3.00;;;11.20;99.90;;;;;;5074455;28;20223;-75
2023/12/17 07:52:15;;;;;;;5.60;2.03;;;11.30;99.90;;;;;;5070469;28;20186;-75
2023/12/17 07:54:41;;;;;;;4.50;2.57;;;11.30;99.90;;;;;;5069162;28;20214;-75
2023/12/17 07:57:08;;;;;;;2.70;1.50;;;11.30;99.90;;;;;;5092246;28;20708;-76
2023/12/17 07:59:34;;;;;;;5.45;2.40;;;11.30;99.90;;;;;;5075416;28;20186;-76
2023/12/17 08:01:59;;;;;;;3.27;2.70;;;11.30;99.90;;;;;;5058306;28;20170;-76
2023/12/17 08:04:25;;;;;;;4.20;2.70;;;11.30;99.90;;;;;;5007679;28;20611;-76
2023/12/17 08:06:51;;;;;;;6.80;3.50;;;11.30;99.90;;;;;;5006613;28;20178;-76
2023/12/17 08:09:16;;;;;;;4.47;2.60;;;11.30;99.90;;;;;;5000411;28;20640;-75
2023/12/17 08:11:44;;;;;;;3.37;2.63;;;11.40;99.90;;;;;;5005499;28;20175;-76
2023/12/17 08:14:09;;;;;;;3.33;2.55;;;11.40;99.90;;;;;;5075223;28;20200;-76
2023/12/17 08:16:35;;;;;;;3.57;2.47;;;11.40;99.90;;;;;;5075340;28;20194;-76
2023/12/17 08:19:01;;;;;;;2.40;2.20;;;11.40;99.90;;;;;;5075490;28;21190;-76
2023/12/17 08:21:27;;;;;;;3.77;2.27;;;11.40;99.90;;;;;;5007393;28;20543;-76
2023/12/17 08:23:52;;;;;;;4.43;2.13;;;11.40;99.90;;;;;;5075075;28;20646;-75
2023/12/17 08:26:19;;;;;;;3.40;3.10;;;11.50;99.90;;;;;;5075640;28;20281;-76
2023/12/17 08:28:45;;;;;;;3.00;2.50;;;11.50;99.90;;;;;;5075387;28;20175;-76
2023/12/17 08:31:10;;;;;;;3.77;2.40;;;11.50;99.90;;;;;;5078413;28;20585;-79
2023/12/17 08:33:36;;;;;;;3.17;2.60;;;11.50;99.90;;;;;;5009704;28;20162;-77
2023/12/17 08:36:02;;;;;;;4.40;2.60;;;11.50;99.90;;;;;;5008031;28;20285;-78
2023/12/17 08:38:28;;;;;;;3.67;2.83;;;11.50;99.90;;;;;;4990603;28;20274;-76
2023/12/17 08:40:54;;;;;;;2.83;2.00;;;11.50;99.90;;;;;;5074841;28;20231;-76
2023/12/17 08:43:20;;;;;;;2.88;2.28;;;11.50;99.90;;;;;;5007348;28;20197;-76
2023/12/17 08:45:46;;;;;;;3.47;2.77;;;11.50;99.90;;;;;;5007326;28;20581;-76
2023/12/17 08:48:11;;;;;;;3.30;2.40;;;11.50;99.90;;;;;;5092114;28;20628;-76
2023/12/17 08:50:37;;;;;;;2.83;2.13;;;11.50;99.90;;;;;;5074289;28;20170;-76
2023/12/17 08:53:03;;;;;;;4.03;3.03;;;11.50;99.90;;;;;;5040274;28;20210;-76
2023/12/17 08:55:28;;;;;;;3.53;2.33;;;11.40;99.90;;;;;;5074884;28;20848;-75
2023/12/17 08:57:54;;;;;;;4.10;2.23;;;11.40;99.90;;;;;;5041972;28;20186;-75
2023/12/17 09:00:20;;;;;;;3.00;2.43;;;11.50;99.90;;;;;;5075474;28;20897;-76
2023/12/17 09:02:46;;;;;;;4.10;2.77;;;11.50;99.90;;;;;;5076450;28;20189;-76
2023/12/17 09:05:12;;;;;;;3.40;2.30;;;11.40;99.90;;;;;;5076572;28;20656;-76
2023/12/17 09:07:38;;;;;;;3.05;2.08;;;11.30;99.90;;;;;;5081032;28;20273;-76
2023/12/17 09:10:05;;;;;;;4.32;2.20;;;11.20;99.90;;;;;;5075982;28;20186;-76
2023/12/17 09:12:31;;;;;;;2.65;2.17;;;11.20;99.90;;;;;;5077005;28;20162;-76
2023/12/17 09:14:56;;;;;;;3.30;2.10;;;11.30;99.90;;;;;;5075503;28;20194;-76
2023/12/17 09:17:22;;;;;;;5.13;2.90;;;11.30;99.90;;;;;;4996531;28;20636;-76
2023/12/17 09:19:48;;;;;;;3.77;2.93;;;11.40;99.90;;;;;;5005518;28;20181;-76
2023/12/17 09:22:14;;;;;;;3.23;2.70;;;11.40;99.90;;;;;;5009203;28;20264;-76
2023/12/17 09:24:40;;;;;;;4.20;3.22;;;11.50;99.90;;;;;;4983977;28;20265;-76
2023/12/17 09:27:06;;;;;;;4.00;3.13;;;11.50;99.90;;;;;;5076932;28;20239;-76
2023/12/17 09:29:32;;;;;;;4.10;3.30;;;11.50;99.90;;;;;;5078206;28;20208;-76
2023/12/17 09:31:58;;;;;;;3.25;2.75;;;11.50;99.90;;;;;;5009603;28;20182;-76
2023/12/17 09:34:24;;;;;;;4.43;2.97;;;11.50;99.90;;;;;;5078088;28;20655;-76
2023/12/17 09:36:50;;;;;;;4.23;2.77;;;11.50;99.90;;;;;;5001835;28;20576;-76
2023/12/17 09:39:15;;;;;;;3.70;2.83;;;11.50;99.90;;;;;;5006542;28;20230;-76
2023/12/17 09:41:41;;;;;;;3.50;2.67;;;11.50;99.90;;;;;;5009329;28;20183;-76
2023/12/17 09:44:08;;;;;;;4.03;3.10;;;11.50;99.90;;;;;;5014440;28;20193;-76
2023/12/17 09:46:35;;;;;;;5.00;4.50;;;11.50;99.90;;;;;;5010074;28;20233;-76
2023/12/17 09:49:01;;;;;;;4.65;3.92;;;11.40;99.90;;;;;;5061058;28;20182;-76
2023/12/17 09:51:28;;;;;;;3.55;3.20;;;11.40;99.90;;;;;;5003498;28;20174;-76
2023/12/17 09:53:57;;;;;;;4.78;3.35;;;11.30;99.90;;;;;;5051757;28;20190;-76
2023/12/17 09:56:24;;;;;;;4.28;2.97;;;11.30;99.90;;;;;;5002482;28;20194;-76
2023/12/17 09:58:50;;;;;;;3.88;3.17;;;11.30;99.90;;;;;;5082389;28;20183;-76
2023/12/17 10:01:15;;;;;;;3.67;3.30;;;11.20;99.90;;;;;;5076894;28;20194;-76
2023/12/17 10:03:41;;;;;;;4.20;3.30;;;11.20;99.90;;;;;;5077833;28;20730;-76
2023/12/17 10:06:07;;;;;;;4.83;3.77;;;11.20;99.90;;;;;;5077530;28;21205;-76
2023/12/17 10:08:36;;;;;;;4.10;3.60;;;11.20;99.90;;;;;;5076575;28;20220;-76
2023/12/17 10:11:02;;;;;;;3.45;2.65;;;11.30;99.90;;;;;;5006316;28;20186;-76
2023/12/17 10:13:28;;;;;;;4.15;3.13;;;11.40;99.90;;;;;;5009875;28;20592;-75
2023/12/17 10:15:55;;;;;;;3.15;2.38;;;11.50;99.90;;;;;;5076234;28;20194;-77
2023/12/17 10:18:22;;;;;;;3.95;3.17;;;11.50;99.90;;;;;;5009833;28;20223;-75
2023/12/17 10:20:48;;;;;;;3.87;3.47;;;11.60;99.90;;;;;;5060427;28;20559;-77
2023/12/17 10:23:15;;;;;;;4.43;3.00;;;11.60;99.90;;;;;;5076844;28;21037;-76
2023/12/17 10:25:43;;;;;;;3.80;3.35;;;11.70;99.90;;;;;;5060481;28;20225;-75
2023/12/17 10:28:10;;;;;;;3.00;2.70;;;11.70;99.90;;;;;;5009395;28;20174;-76
2023/12/17 10:30:37;;;;;;;3.60;3.30;;;11.80;99.90;;;;;;5076853;28;20586;-75
2023/12/17 10:33:05;;;;;;;6.00;3.97;;;11.80;99.90;;;;;;5009290;28;20941;-75
2023/12/17 10:35:31;;;;;;;3.50;2.83;;;11.90;99.90;;;;;;5009327;28;20608;-75
2023/12/17 10:38:02;;;;;;;2.93;2.63;;;12.00;99.90;;;;;;5076648;28;20689;-76
2023/12/17 10:40:29;;;;;;;5.70;4.30;;;12.10;99.90;;;;;;5075886;28;20598;-76
2023/12/17 10:42:56;;;;;;;2.90;2.53;;;12.30;99.90;;;;;;5008683;28;20619;-76
2023/12/17 10:45:22;;;;;;;4.90;4.00;;;12.40;99.90;;;;;;5008807;28;20697;-76
2023/12/17 10:47:56;;;;;;;4.30;3.90;;;12.50;99.90;;;;;;5009407;28;20189;-76
2023/12/17 10:50:23;;;;;;;4.00;3.07;;;12.50;99.90;;;;;;4971716;28;20663;-76
2023/12/17 10:52:49;;;;;;;3.83;3.50;;;12.70;99.90;;;;;;5004835;28;20645;-76
2023/12/17 10:55:17;;;;;;;5.30;3.27;;;12.60;99.90;;;;;;5009464;28;20637;-76
2023/12/17 10:57:59;;;;;;;3.77;3.40;;;12.60;99.90;;;;;;5080264;28;20586;-75
2023/12/17 11:00:27;;;;;;;4.18;2.83;;;12.70;99.90;;;;;;5065588;28;20643;-75
2023/12/17 11:02:58;;;;;;;3.10;1.97;;;12.70;99.90;;;;;;5073917;28;20190;-75
2023/12/17 11:05:24;;;;;;;3.03;2.33;;;12.80;99.90;;;;;;4992079;28;20660;-76
2023/12/17 11:07:49;;;;;;;3.00;2.40;;;12.80;99.90;;;;;;5009500;28;20582;-75
2023/12/17 11:10:17;;;;;;;3.07;2.37;;;12.80;99.90;;;;;;5059632;28;20172;-75
2023/12/17 11:12:46;;;;;;;3.73;2.57;;;12.80;99.90;;;;;;5002679;28;20179;-75
2023/12/17 11:15:13;;;;;;;4.00;3.00;;;12.70;99.90;;;;;;5007528;28;20620;-76
2023/12/17 11:17:39;;;;;;;3.20;2.80;;;12.70;99.90;;;;;;5009194;28;20676;-75
2023/12/17 11:20:06;;;;;;;2.60;1.90;;;12.70;99.90;;;;;;5076218;28;20644;-75
2023/12/17 11:22:36;;;;;;;3.80;2.97;;;12.70;99.90;;;;;;5074178;28;20666;-75
2023/12/17 11:25:03;;;;;;;4.27;2.23;;;12.70;99.90;;;;;;5086239;28;20190;-75
2023/12/17 11:27:31;;;;;;;2.35;1.85;;;12.70;99.90;;;;;;5003450;28;20586;-74
2023/12/17 11:29:57;;;;;;;2.90;1.63;;;12.70;99.90;;;;;;5035738;28;20171;-75
2023/12/17 11:32:27;;;;;;;3.40;2.40;;;12.70;99.90;;;;;;5088159;28;20581;-75
2023/12/17 11:34:54;;;;;;;3.10;1.80;;;12.60;99.90;;;;;;4992766;28;20617;-75
2023/12/17 11:37:21;;;;;;;2.30;1.90;;;12.60;99.90;;;;;;4991216;28;21095;-75
2023/12/17 11:39:49;;;;;;;2.40;1.60;;;12.60;99.90;;;;;;5092352;28;20598;-75
2023/12/17 11:42:19;;;;;;;3.60;2.10;;;12.60;99.90;;;;;;5075899;28;20612;-75
2023/12/17 11:44:46;;;;;;;2.30;1.53;;;12.60;99.90;;;;;;5075475;28;20656;-76
2023/12/17 11:47:12;;;;;;;2.60;1.90;;;12.60;99.90;;;;;;5075789;28;20593;-76
2023/12/17 11:49:38;;;;;;;2.40;1.83;;;12.60;99.90;;;;;;5008258;28;20673;-75
2023/12/17 11:52:15;;;;;;;2.30;1.80;;;12.60;99.90;;;;;;4989711;28;20593;-76
2023/12/17 11:54:45;;;;;;;2.03;1.50;;;12.60;99.90;;;;;;5075657;28;20620;-76
2023/12/17 11:57:21;;;;;;;2.57;2.03;;;12.60;99.90;;;;;;5034577;28;20690;-76
2023/12/17 11:59:47;;;;;;;3.20;1.93;;;12.50;99.90;;;;;;5074894;28;20636;-75
2023/12/17 12:02:17;;;;;;;3.90;2.70;;;12.60;99.90;;;;;;5047912;28;20586;-75
2023/12/17 12:04:44;;;;;;;3.10;2.60;;;12.50;99.90;;;;;;5075584;28;20661;-75
2023/12/17 12:07:14;;;;;;;3.20;2.77;;;12.50;99.90;;;;;;5089041;28;20597;-75
2023/12/17 12:09:40;;;;;;;3.50;2.97;;;12.40;99.90;;;;;;4990362;28;20585;-75
2023/12/17 12:12:17;;;;;;;2.93;2.47;;;12.30;99.90;;;;;;5076739;28;20594;-76
2023/12/17 12:14:48;;;;;;;2.33;2.10;;;12.30;99.90;;;;;;5007362;28;20285;-75
2023/12/17 12:17:40;;;;;;;3.77;3.40;;;12.20;99.90;;;;;;5003120;28;20552;-75
2023/12/17 12:20:10;;;;;;;3.97;2.57;;;12.10;99.90;;;;;;5006983;28;20617;-77
2023/12/17 12:22:38;;;;;;;3.65;2.55;;;12.00;99.90;;;;;;5004726;28;20639;-75
2023/12/17 12:25:05;;;;;;;3.35;2.80;;;12.00;99.90;;;;;;5004695;28;20244;-75
2023/12/17 12:27:31;;;;;;;3.33;3.03;;;11.90;99.90;;;;;;4990027;28;20170;-75
2023/12/17 12:29:57;;;;;;;3.30;3.00;;;11.90;99.90;;;;;;4989744;28;20231;-75
2023/12/17 12:32:33;;;;;;;3.70;2.95;;;11.90;99.90;;;;;;5007702;28;20236;-75
2023/12/17 12:35:00;;;;;;;2.67;2.30;;;11.90;99.90;;;;;;5057906;28;20573;-74
2023/12/17 12:37:33;;;;;;;3.67;3.13;;;11.90;99.90;;;;;;5071375;28;20191;-76
2023/12/17 12:39:59;;;;;;;3.45;3.15;;;11.80;99.90;;;;;;4992922;28;20189;-76
2023/12/17 12:42:25;;;;;;;2.80;2.40;;;11.80;99.90;;;;;;5075979;28;20179;-76